Ridgewood, NJ (07450)

12:42 PM EDT on April 28, 2015 (GMT -0400)
Hope Street | | Change Station
CLOSE
Current Station
Personal Weather Station
Location: Ridgewood, NJ
Elevation: 120 ft
Nearby Weather Stations
Active Advisory: Special Statement

Elev 120 ft 40.98 °N, 74.11 °W | Updated 17 seconds ago

Clear
Clear
70.3 °F
Feels Like 77 °F
N
3.1
Wind Variable Wind from NNW

Today
High -- | Low -- °F
--% Chance of Precip.
Yesterday
High -- | Low -- °F
Precip. -- in
5:58 AM 7:49 PM
Waxing Gibbous, 75% visible
Pressure 29.79 in
Visibility 10.0 miles
Clouds Scattered Clouds 6000 ft
Heat Index 77 °F
Dew Point 43 °F
Humidity 37%
Rainfall 0.00 in
Snow Depth Not available.
UV 8 out of 12
Pollen 11.00 out of 12
Air Quality Not available.
Flu Activity Local Activity
METAR KTEB 281551Z 01012G18KT 10SM SCT060 17/01 A2979 RMK AO2 SLP086 T01720006 $

More Conditions Fewer Conditions

Pressure 29.79 in
Visibility 10.0 miles
Clouds Scattered Clouds 6000 ft
Heat Index 77 °F
Dew Point 43 °F
Humidity 37%
Rainfall 0.00 in
Snow Depth Not available.
UV 8 out of 12
Pollen 11.00 out of 12
Air Quality Not available.
Flu Activity Local Activity
METAR KTEB 281551Z 01012G18KT 10SM SCT060 17/01 A2979 RMK AO2 SLP086 T01720006 $

More Conditions Fewer Conditions

10-Day Weather Forecast

Almanac

Astronomy

Apr. 28, 2015 Rise Set
Actual Time
Civil Twilight
Nautical Twilight
Astronomical Twilight
Moon
Length of Visible Light
Length of Day
Tomorrow will be .
, % of the Moon is Illuminated

Today's Extremes

State Highs State Lows

Community

WunderPhotos

Upload Photos

1,817,699 photos uploaded!

WunderBlogs® & News

Nearby

Air Quality

  Air Quality AQ Index Pollutant
Not available.

Snow Depth

Station Depth Elevation

Earthquake Activity

City Distance Mag. Time & Date
Minimum magnitude displayed is 2.5.

Coastal Water Temperatures

Place Temperature

Stations

Nearby Weather Stations

Station Location Temp. Windchill Dew Point Humidity Wind Precip. Elev Updated Type
                   
Special Statement
Statement as of 9:34 AM EDT on April 28, 2015

... Gusty winds and dry conditions today...

North to northwest winds will gust up to 20 to 25 mph today...
while relative humidities fall to 30 to 35 percent. This will
increase the risk for growth and spread of any fires
that develop.